createdAt,value
2023-01-28T14:51:00.105Z,0.69
2023-01-28T14:53:36.503Z,0.68
2023-01-28T14:56:11.506Z,0.68
2023-01-28T14:58:41.824Z,0.67
2023-01-28T15:01:20.534Z,0.66
2023-01-28T15:03:48.761Z,0.69
2023-01-28T15:06:17.688Z,0.69
2023-01-28T15:08:47.127Z,0.67
2023-01-28T15:11:17.574Z,0.68
2023-01-28T15:13:47.033Z,0.67
2023-01-28T15:16:19.356Z,0.67
2023-01-28T15:18:48.376Z,0.64
2023-01-28T15:21:20.390Z,0.62
2023-01-28T15:23:50.839Z,0.61
2023-01-28T15:26:21.039Z,0.66
2023-01-28T15:28:49.559Z,0.68
2023-01-28T15:31:21.114Z,0.71
2023-01-28T15:33:57.192Z,0.71
2023-01-28T15:36:26.566Z,0.69
2023-01-28T15:38:56.146Z,0.72
2023-01-28T15:41:25.503Z,0.73
2023-01-28T15:43:54.074Z,0.75
2023-01-28T15:46:22.189Z,0.76
2023-01-28T15:48:52.449Z,0.75
2023-01-28T15:51:21.691Z,0.74
2023-01-28T15:53:51.491Z,0.74
2023-01-28T15:56:25.831Z,0.74
2023-01-28T15:58:54.025Z,0.76
2023-01-28T16:01:22.289Z,0.68
2023-01-28T16:04:01.913Z,0.63
2023-01-28T16:06:35.915Z,0.58
2023-01-28T16:09:05.177Z,0.56
2023-01-28T16:11:37.404Z,0.53
2023-01-28T16:14:05.688Z,0.46
2023-01-28T16:16:35.450Z,0.47
2023-01-28T16:19:05.532Z,0.51
2023-01-28T16:21:35.042Z,0.46
2023-01-28T16:24:04.540Z,0.48
2023-01-28T16:26:33.571Z,0.46
2023-01-28T16:29:13.295Z,0.44
2023-01-28T16:31:41.432Z,0.41
2023-01-28T16:34:10.450Z,0.39
2023-01-28T16:36:38.653Z,0.34
2023-01-28T16:39:06.812Z,0.35
2023-01-28T16:41:36.496Z,0.34
2023-01-28T16:44:06.922Z,0.30
2023-01-28T16:46:35.224Z,0.23
2023-01-28T16:49:03.894Z,0.17
2023-01-28T16:51:32.514Z,0.16
2023-01-28T16:54:00.770Z,0.13
2023-01-28T16:56:44.552Z,0.17
2023-01-28T16:59:16.375Z,0.17
2023-01-28T17:01:45.206Z,0.14
2023-01-28T17:04:13.603Z,0.11
2023-01-28T17:06:43.513Z,0.09
2023-01-28T17:09:11.887Z,0.06
2023-01-28T17:11:41.012Z,0.01
2023-01-28T17:14:09.235Z,0.02
2023-01-28T17:16:39.092Z,-0.03
2023-01-28T17:19:07.492Z,-0.04
2023-01-28T17:21:35.786Z,-0.03
2023-01-28T17:24:04.259Z,0.02
2023-01-28T17:26:34.080Z,0.01
2023-01-28T17:29:02.289Z,0.02
2023-01-28T17:31:30.516Z,0.02
2023-01-28T17:34:00.399Z,0.01
2023-01-28T17:36:28.768Z,0.03
2023-01-28T17:38:56.783Z,0.08
2023-01-28T17:41:24.784Z,0.08
2023-01-28T17:43:53.604Z,0.08
2023-01-28T17:46:22.897Z,0.06
2023-01-28T17:48:51.187Z,0.08
2023-01-28T17:51:20.730Z,0.08
2023-01-28T17:53:48.978Z,0.07
2023-01-28T17:56:18.252Z,0.07
2023-01-28T17:58:49.948Z,0.09
2023-01-28T18:01:18.330Z,0.08
2023-01-28T18:03:46.615Z,0.08
2023-01-28T18:06:14.784Z,0.10
2023-01-28T18:08:44.293Z,0.10
2023-01-28T18:11:13.233Z,0.09
2023-01-28T18:13:41.880Z,0.09
2023-01-28T18:16:14.823Z,0.11
2023-01-28T18:18:43.008Z,0.10
2023-01-28T18:21:19.863Z,0.07
2023-01-28T18:23:49.794Z,0.11
2023-01-28T18:26:17.884Z,0.08
2023-01-28T18:28:45.914Z,0.07
2023-01-28T18:31:14.048Z,0.02
2023-01-28T18:33:42.327Z,-0.01
2023-01-28T18:36:11.235Z,-0.01
2023-01-28T18:38:39.284Z,-0.02
2023-01-28T18:41:08.759Z,-0.02
2023-01-28T18:43:37.079Z,0.01
2023-01-28T18:46:11.145Z,0.05
2023-01-28T18:48:39.473Z,0.03
2023-01-28T18:51:12.338Z,0.06
2023-01-28T18:53:45.696Z,0.07
2023-01-28T18:56:15.219Z,0.09
2023-01-28T18:58:43.344Z,0.08
2023-01-28T19:01:12.411Z,0.09
2023-01-28T19:03:40.461Z,0.12
2023-01-28T19:06:09.889Z,0.13
2023-01-28T19:08:38.412Z,0.13
2023-01-28T19:11:06.499Z,0.14
2023-01-28T19:13:35.907Z,0.17
2023-01-28T19:16:04.338Z,0.19
2023-01-28T19:18:32.769Z,0.20
2023-01-28T19:21:02.903Z,0.19
2023-01-28T19:23:40.968Z,0.22
2023-01-28T19:26:21.150Z,0.18
2023-01-28T19:28:51.175Z,0.17
2023-01-28T19:31:20.836Z,0.15
2023-01-28T19:33:49.645Z,0.19
2023-01-28T19:36:17.634Z,0.13
2023-01-28T19:38:45.923Z,0.13
2023-01-28T19:41:16.326Z,0.11
2023-01-28T19:43:44.464Z,0.14
2023-01-28T19:46:15.757Z,0.17
2023-01-28T19:48:44.095Z,0.20
2023-01-28T19:51:12.840Z,0.23
2023-01-28T19:53:41.700Z,0.27
2023-01-28T19:56:10.740Z,0.29
2023-01-28T19:58:39.712Z,0.28
2023-01-28T20:01:08.601Z,0.27
2023-01-28T20:03:38.117Z,0.27
2023-01-28T20:06:06.963Z,0.26
2023-01-28T20:08:35.007Z,0.27
2023-01-28T20:11:03.579Z,0.25
2023-01-28T20:13:32.098Z,0.22
2023-01-28T20:16:00.420Z,0.25
2023-01-28T20:18:28.748Z,0.26
2023-01-28T20:20:58.189Z,0.26
2023-01-28T20:23:26.322Z,0.23
2023-01-28T20:25:55.412Z,0.25
2023-01-28T20:28:24.201Z,0.28
2023-01-28T20:30:52.894Z,0.30
2023-01-28T20:33:21.323Z,0.31
2023-01-28T20:35:49.772Z,0.27
2023-01-28T20:38:19.132Z,0.23
2023-01-28T20:40:47.570Z,0.25
2023-01-28T20:43:15.928Z,0.24
2023-01-28T20:45:44.119Z,0.27
2023-01-28T20:48:12.211Z,0.22
2023-01-28T20:50:40.470Z,0.26
2023-01-28T20:53:08.629Z,0.23
2023-01-28T20:55:38.028Z,0.24
2023-01-28T20:58:06.178Z,0.27
2023-01-28T21:00:34.244Z,0.31
2023-01-28T21:03:02.339Z,0.30
2023-01-28T21:05:30.405Z,0.32
2023-01-28T21:07:58.479Z,0.38
2023-01-28T21:10:26.552Z,0.44
2023-01-28T21:12:56.151Z,0.40
2023-01-28T21:15:24.236Z,0.39
2023-01-28T21:17:52.316Z,0.38
2023-01-28T21:20:20.358Z,0.41
2023-01-28T21:22:51.367Z,0.41
2023-01-28T21:25:19.675Z,0.43
2023-01-28T21:27:47.729Z,0.46
2023-01-28T21:30:18.367Z,0.48
2023-01-28T21:32:46.949Z,0.46
2023-01-28T21:35:15.149Z,0.41
2023-01-28T21:37:46.081Z,0.38
2023-01-28T21:40:14.695Z,0.31
2023-01-28T21:42:43.651Z,0.33
2023-01-28T21:45:12.261Z,0.35
2023-01-28T21:47:41.783Z,0.32
2023-01-28T21:50:10.350Z,0.32
2023-01-28T21:52:38.422Z,0.31
2023-01-28T21:55:06.867Z,0.29
2023-01-28T21:57:34.942Z,0.30
2023-01-28T22:00:02.069Z,0.31
2023-01-28T22:02:39.719Z,0.31
2023-01-28T22:05:09.477Z,0.29
2023-01-28T22:07:37.543Z,0.28
2023-01-28T22:10:05.749Z,0.23
2023-01-28T22:12:33.823Z,0.22
2023-01-28T22:15:01.946Z,0.27
2023-01-28T22:17:31.615Z,0.26
2023-01-28T22:19:59.694Z,0.31
2023-01-28T22:22:29.109Z,0.31
2023-01-28T22:24:57.101Z,0.34
2023-01-28T22:27:27.161Z,0.32
2023-01-28T22:29:57.559Z,0.31
2023-01-28T22:32:26.814Z,0.36
2023-01-28T22:34:54.764Z,0.40
2023-01-28T22:37:22.825Z,0.44
2023-01-28T22:39:54.434Z,0.38
2023-01-28T22:42:24.059Z,0.43
2023-01-28T22:44:52.218Z,0.46
2023-01-28T22:47:20.328Z,0.47
2023-01-28T22:49:48.380Z,0.42
2023-01-28T22:52:16.410Z,0.41
2023-01-28T22:54:44.538Z,0.44
2023-01-28T22:57:13.983Z,0.40
2023-01-28T22:59:45.908Z,0.42
2023-01-28T23:02:19.292Z,0.44
2023-01-28T23:04:47.487Z,0.45
2023-01-28T23:07:15.566Z,0.46
2023-01-28T23:09:44.842Z,0.49
2023-01-28T23:12:14.233Z,0.53
2023-01-28T23:14:59.857Z,0.53
2023-01-28T23:17:45.025Z,0.51
2023-01-28T23:20:30.820Z,0.53
2023-01-28T23:23:16.420Z,0.54
2023-01-28T23:25:44.458Z,0.54
2023-01-28T23:28:14.025Z,0.56
2023-01-28T23:30:42.237Z,0.50
2023-01-28T23:33:10.582Z,0.46
2023-01-28T23:35:38.739Z,0.50
2023-01-28T23:38:06.901Z,0.53
2023-01-28T23:40:34.954Z,0.48
2023-01-28T23:43:04.613Z,0.52
2023-01-28T23:45:34.188Z,0.54
2023-01-28T23:48:04.406Z,0.52
2023-01-28T23:50:32.462Z,0.38
2023-01-28T23:53:01.440Z,0.41
2023-01-28T23:55:29.580Z,0.45
2023-01-28T23:57:57.583Z,0.46
